Seapride — 9HA3272 — position and weather

sailwx.info

Track history (hours):
 
Tides and Currents Weather Stations Pressure Air Temp Water Temp Dewpoint Dewpoint Depression Visibility Wind Speed Wind Dir Waves Ship Positions

Seapride

Last reported at 2018-Feb-05 17:11 UTC. Time now 2018-Feb-24 22:12 UTC.
Position N 29°30' W 094°52'.
Warning: this ship's position is 19 days out of date.

Length 183 m; draft 12.1 m.

Type: Tanker. MMSI: 229365000.

Date/timePositionNaut miles runAvg speedWind from/ knotsBaromVisibWave heightAir tempDewpointWater temp
2018-Feb-05 17:11N 29°30' W 094°52'210.9
2018-Feb-05 17:00N 29°31' W 094°53'1010.5
2018-Feb-05 16:00N 29°41' W 094°59'4 7.6
2018-Feb-05 15:28N 29°44' W 095°02'4 6.8
2018-Feb-05 14:57N 29°46' W 095°05'4 4.9
2018-Feb-05 14:13N 29°44' W 095°09'1 4.2
2018-Feb-05 14:00N 29°45' W 095°10'  
2018-Feb-02 06:54N 29°44' W 095°07'3 6.1
2018-Feb-02 06:21N 29°44' W 095°03'3 7.8
2018-Feb-02 06:00N 29°42' W 095°01'611.4
2018-Feb-02 05:30N 29°37' W 094°57'612.8
2018-Feb-02 05:00N 29°32' W 094°54'713.9
2018-Feb-02 04:30N 29°26' W 094°50'7 0.3
2018-Feb-01 01:33N 29°21' W 094°43'0 5.5
2018-Feb-01 01:30N 29°21' W 094°44'15 9.1
2018-Jan-31 23:50N 29°14' W 094°28'1 0.1
2018-Jan-31 16:54N 29°15' W 094°27'3 6.4
2018-Jan-31 16:27N 29°12' W 094°26'410.1
2018-Jan-31 16:00N 29°08' W 094°26'714.6
2018-Jan-31 15:30N 29°05' W 094°34'2 1.2
2018-Jan-31 14:13N 29°05' W 094°36'0 0.0
2018-Jan-31 12:52N 29°05' W 094°36'0 0.0
2018-Jan-31 12:28N 29°05' W 094°36'0 0.0
2018-Jan-31 11:55N 29°05' W 094°36'0 0.0
2018-Jan-31 11:16N 29°05' W 094°36'0 0.0
2018-Jan-31 10:43N 29°05' W 094°36'0 0.0
2018-Jan-31 09:37N 29°05' W 094°36'0 0.0
2018-Jan-31 09:13N 29°05' W 094°36'0 0.0
2018-Jan-31 08:55N 29°05' W 094°36'0 0.0
2018-Jan-31 08:19N 29°05' W 094°36'0 0.0
2018-Jan-31 07:58N 29°05' W 094°36'0 0.0
2018-Jan-31 07:28N 29°05' W 094°36'0 0.0
2018-Jan-31 06:49N 29°05' W 094°36'0 0.0
2018-Jan-31 06:25N 29°05' W 094°36'0 0.0
2018-Jan-31 05:58N 29°05' W 094°36'0 0.0
2018-Jan-31 05:19N 29°05' W 094°36'0 0.0
2018-Jan-31 04:58N 29°05' W 094°36'0 0.0
2018-Jan-31 04:19N 29°05' W 094°36'0 0.0
2018-Jan-31 03:52N 29°05' W 094°36'0 0.0
2018-Jan-30 16:07N 29°05' W 094°36'0 0.2
2018-Jan-30 15:58N 29°05' W 094°36'0 0.0
2018-Jan-30 15:22N 29°05' W 094°36'0 0.0
2018-Jan-30 14:46N 29°05' W 094°36'0 0.0
2018-Jan-30 11:52N 29°05' W 094°36'0 0.1
2018-Jan-30 11:28N 29°05' W 094°36'0 0.0
2018-Jan-29 15:49N 29°05' W 094°36'0 0.0
2018-Jan-29 15:25N 29°05' W 094°36'0 0.0
2018-Jan-29 14:55N 29°05' W 094°36'0 0.0
2018-Jan-29 14:25N 29°05' W 094°36'0 0.0
2018-Jan-29 13:58N 29°05' W 094°36'0 0.0
2018-Jan-29 13:13N 29°05' W 094°36'0 0.0
2018-Jan-29 12:25N 29°05' W 094°36'0 0.0
2018-Jan-29 11:58N 29°05' W 094°36'0 0.0
2018-Jan-29 11:22N 29°05' W 094°36'  
Track history (hours):
 
Tides and Currents Weather Stations Pressure Air Temp Water Temp Dewpoint Dewpoint Depression Visibility Wind Speed Wind Dir Waves Ship Positions

Seapride

Last reported at 2018-Feb-05 17:11 UTC. Time now 2018-Feb-24 22:12 UTC.
Position N 29°30' W 094°52'.
Warning: this ship's position is 19 days out of date.

Length 183 m; draft 12.1 m.

Type: Tanker. MMSI: 229365000.

Date/timePositionNaut miles runAvg speedWind from/ knotsBaromVisibWave heightAir tempDewpointWater temp
2018-Feb-05 17:11N 29°30' W 094°52'210.9
2018-Feb-05 17:00N 29°31' W 094°53'1010.5
2018-Feb-05 16:00N 29°41' W 094°59'4 7.6
2018-Feb-05 15:28N 29°44' W 095°02'4 6.8
2018-Feb-05 14:57N 29°46' W 095°05'4 4.9
2018-Feb-05 14:13N 29°44' W 095°09'1 4.2
2018-Feb-05 14:00N 29°45' W 095°10'  
2018-Feb-02 06:54N 29°44' W 095°07'3 6.1
2018-Feb-02 06:21N 29°44' W 095°03'3 7.8
2018-Feb-02 06:00N 29°42' W 095°01'611.4
2018-Feb-02 05:30N 29°37' W 094°57'612.8
2018-Feb-02 05:00N 29°32' W 094°54'713.9
2018-Feb-02 04:30N 29°26' W 094°50'7 0.3
2018-Feb-01 01:33N 29°21' W 094°43'0 5.5
2018-Feb-01 01:30N 29°21' W 094°44'15 9.1
2018-Jan-31 23:50N 29°14' W 094°28'1 0.1
2018-Jan-31 16:54N 29°15' W 094°27'3 6.4
2018-Jan-31 16:27N 29°12' W 094°26'410.1
2018-Jan-31 16:00N 29°08' W 094°26'714.6
2018-Jan-31 15:30N 29°05' W 094°34'2 1.2
2018-Jan-31 14:13N 29°05' W 094°36'0 0.0
2018-Jan-31 12:52N 29°05' W 094°36'0 0.0
2018-Jan-31 12:28N 29°05' W 094°36'0 0.0
2018-Jan-31 11:55N 29°05' W 094°36'0 0.0
2018-Jan-31 11:16N 29°05' W 094°36'0 0.0
2018-Jan-31 10:43N 29°05' W 094°36'0 0.0
2018-Jan-31 09:37N 29°05' W 094°36'0 0.0
2018-Jan-31 09:13N 29°05' W 094°36'0 0.0
2018-Jan-31 08:55N 29°05' W 094°36'0 0.0
2018-Jan-31 08:19N 29°05' W 094°36'0 0.0
2018-Jan-31 07:58N 29°05' W 094°36'0 0.0
2018-Jan-31 07:28N 29°05' W 094°36'0 0.0
2018-Jan-31 06:49N 29°05' W 094°36'0 0.0
2018-Jan-31 06:25N 29°05' W 094°36'0 0.0
2018-Jan-31 05:58N 29°05' W 094°36'0 0.0
2018-Jan-31 05:19N 29°05' W 094°36'0 0.0
2018-Jan-31 04:58N 29°05' W 094°36'0 0.0
2018-Jan-31 04:19N 29°05' W 094°36'0 0.0
2018-Jan-31 03:52N 29°05' W 094°36'0 0.0
2018-Jan-30 16:07N 29°05' W 094°36'0 0.2
2018-Jan-30 15:58N 29°05' W 094°36'0 0.0
2018-Jan-30 15:22N 29°05' W 094°36'0 0.0
2018-Jan-30 14:46N 29°05' W 094°36'0 0.0
2018-Jan-30 11:52N 29°05' W 094°36'0 0.1
2018-Jan-30 11:28N 29°05' W 094°36'0 0.0
2018-Jan-29 15:49N 29°05' W 094°36'0 0.0
2018-Jan-29 15:25N 29°05' W 094°36'0 0.0
2018-Jan-29 14:55N 29°05' W 094°36'0 0.0
2018-Jan-29 14:25N 29°05' W 094°36'0 0.0
2018-Jan-29 13:58N 29°05' W 094°36'0 0.0
2018-Jan-29 13:13N 29°05' W 094°36'0 0.0
2018-Jan-29 12:25N 29°05' W 094°36'0 0.0
2018-Jan-29 11:58N 29°05' W 094°36'0 0.0
2018-Jan-29 11:22N 29°05' W 094°36'  

Dump ship's entire track history